Data for 08/06/2015

Time Sea-Level Adjusted Pressure Absolute Pressure Temperature Relative Humidity Dew Point   
(mb) (inHg) (mb) (inHg) (C) (F) (%) (C) (F)
00:05 1019 30.09 848 25.04 9.7 49.4 86 7.5 45.4
00:10 1019 30.09 848 25.04 9.5 49.2 86 7.4 45.3
00:15 1019 30.09 848 25.04 9.5 49 86 7.3 45.1
00:20 1019 30.09 848 25.04 9.5 49.1 85 7.1 44.8
00:25 1019 30.09 848 25.04 9.6 49.3 85 7.2 44.9
00:30 1019 30.09 848 25.04 9.6 49.2 85 7.1 44.8
00:35 1019 30.09 848 25.04 9.7 49.5 83 6.9 44.5
00:40 1019 30.09 848 25.04 10.1 50.2 81 7 44.6
00:45 1019 30.09 848 25.04 10.3 50.5 81 7.1 44.8
00:50 1019 30.09 848 25.04 10.1 50.2 82 7.2 45
00:55 1019 30.09 848 25.04 9.9 49.8 83 7.2 44.9
01:00 1019 30.09 848 25.04 10 49.9 82 7 44.6
01:05 1019 30.09 848 25.04 9.9 49.9 84 7.3 45.1
01:10 1019 30.09 848 25.04 10.2 50.4 82 7.3 45.1
01:15 1019 30.09 848 25.04 10.2 50.3 82 7.2 45
01:20 1019 30.09 848 25.04 10.2 50.3 81 7 44.6
01:25 1019 30.09 848 25.04 10.2 50.3 81 7.1 44.8
01:30 1019 30.09 848 25.04 10 50.1 80 6.8 44.2
01:35 1019 30.09 848 25.04 10 50 80 6.8 44.2
01:40 1019 30.09 848 25.04 10.2 50.3 80 6.9 44.4
01:45 1019 30.09 848 25.04 10 49.9 82 7 44.6
01:50 1019 30.09 848 25.04 9.7 49.4 82 6.9 44.3
01:55 1019 30.09 848 25.04 9.6 49.3 82 6.8 44.2
02:00 1018 30.06 848 25.04 9.6 49.2 82 6.7 44.1
02:05 1019 30.09 848 25.04 9.4 49 83 6.8 44.2
02:10 1018 30.06 848 25.04 9.2 48.6 84 6.7 44
02:15 1018 30.06 848 25.04 9.4 49 81 6.4 43.5
02:20 1018 30.06 848 25.04 9.8 49.6 81 6.7 44.1
02:25 1018 30.06 848 25.04 9.8 49.6 81 6.7 44.1
02:30 1018 30.06 848 25.04 10 49.9 80 6.7 44
02:35 1018 30.06 848 25.04 10.2 50.3 78 6.6 43.8
02:40 1018 30.06 848 25.04 10.3 50.6 78 6.7 44.1
02:45 1018 30.06 848 25.04 10 50 80 6.8 44.2
02:50 1018 30.06 848 25.04 9.7 49.5 82 6.7 44.1
02:55 1018 30.06 848 25.04 9.6 49.2 82 6.7 44
03:00 1018 30.06 848 25.04 9.2 48.6 84 6.6 43.9
03:05 1018 30.06 848 25.04 9.2 48.5 84 6.5 43.8
03:10 1018 30.06 848 25.04 9.1 48.3 84 6.5 43.6
03:15 1018 30.06 848 25.04 9.2 48.5 83 6.5 43.6
03:20 1018 30.06 848 25.04 9.2 48.5 83 6.4 43.5
03:25 1018 30.06 848 25.04 9.4 48.8 82 6.4 43.6
03:30 1018 30.06 848 25.04 9.6 49.3 81 6.4 43.6
03:35 1018 30.06 848 25.04 9.8 49.7 79 6.4 43.6
03:40 1018 30.06 848 25.04 9.9 49.9 79 6.4 43.5
03:45 1018 30.06 848 25.04 9.8 49.6 80 6.4 43.6
03:50 1018 30.06 848 25.04 9.5 49.1 80 6.3 43.3
03:55 1018 30.06 847 25.01 9.9 49.8 78 6.3 43.3
04:00 1018 30.06 847 25.01 9.9 49.9 79 6.5 43.6
04:05 1018 30.06 847 25.01 9.7 49.5 80 6.4 43.6
04:10 1018 30.06 847 25.01 9.6 49.3 81 6.5 43.6
04:15 1018 30.06 847 25.01 9.6 49.3 81 6.5 43.6
04:20 1018 30.06 847 25.01 9.5 49.2 81 6.4 43.6
04:25 1018 30.06 847 25.01 9.5 49.1 82 6.5 43.8
04:30 1018 30.06 847 25.01 9.5 49 81 6.4 43.6
04:35 1018 30.06 847 25.01 9.7 49.4 80 6.5 43.6
04:40 1018 30.06 847 25.01 9.8 49.7 80 6.5 43.7
04:45 1018 30.06 848 25.04 9.9 49.8 81 6.8 44.2
04:50 1018 30.06 848 25.04 9.9 49.7 81 6.7 44
04:55 1018 30.06 847 25.01 10.1 50.1 79 6.6 43.9
05:00 1018 30.06 847 25.01 10.3 50.5 79 6.8 44.2
05:05 1018 30.06 848 25.04 10.3 50.5 79 6.9 44.4
05:10 1018 30.06 848 25.04 10.2 50.4 78 6.6 44
05:15 1018 30.06 848 25.04 10.3 50.6 79 6.9 44.4
05:20 1018 30.06 848 25.04 10.1 50.2 80 6.9 44.4
05:25 1018 30.06 848 25.04 10 50 80 6.7 44.1
05:30 1018 30.06 848 25.04 9.9 49.9 81 6.8 44.2
05:35 1018 30.06 848 25.04 10 49.9 80 6.7 44
05:40 1018 30.06 848 25.04 10.2 50.3 79 6.7 44.1
05:45 1019 30.09 848 25.04 10.1 50.2 79 6.7 44
05:50 1019 30.09 848 25.04 10.2 50.4 78 6.5 43.8
05:55 1019 30.09 848 25.04 10.4 50.7 77 6.5 43.7
06:00 1019 30.09 848 25.04 10.4 50.8 77 6.6 44
06:05 1019 30.09 848 25.04 10.4 50.8 77 6.6 43.9
06:10 1019 30.09 848 25.04 10.6 51.1 76 6.6 43.8
06:15 1019 30.09 848 25.04 10.8 51.5 75 6.7 44.1
06:20 1019 30.09 848 25.04 10.9 51.7 74 6.5 43.7
06:25 1019 30.09 848 25.04 11.4 52.5 72 6.6 43.8
06:30 1019 30.09 848 25.04 11.5 52.7 74 7 44.7
06:35 1019 30.09 848 25.04 11.6 52.8 75 7.2 45
06:40 1019 30.09 848 25.04 11.6 52.9 74 7.1 44.8
06:45 1019 30.09 848 25.04 12.2 54 69 6.8 44.2
06:50 1019 30.09 848 25.04 12.6 54.8 69 7.1 44.7
06:55 1019 30.09 848 25.04 12.8 55.1 69 7.3 45.1
07:00 1019 30.09 848 25.04 13.4 56.2 67 7.5 45.5
07:05 1019 30.09 848 25.04 13.8 56.9 67 7.8 46
07:10 1019 30.09 848 25.04 14 57.3 69 8.5 47.4
07:15 1019 30.09 848 25.04 14.8 58.7 64 8.2 46.8
07:20 1019 30.09 848 25.04 15 59.1 63 8.2 46.8
07:25 1019 30.09 848 25.04 15.1 59.1 64 8.5 47.2
07:30 1019 30.09 848 25.04 15.5 59.8 62 8.3 46.9
07:35 1019 30.09 848 25.04 15.4 59.7 63 8.5 47.2
07:40 1019 30.09 848 25.04 15.6 60.1 60 8.1 46.5
07:45 1019 30.09 848 25.04 15.8 60.4 65 9.3 48.7
07:50 1019 30.09 848 25.04 15.9 60.7 62 8.7 47.7
07:55 1019 30.09 848 25.04 16.3 61.4 60 8.6 47.5
08:00 1019 30.09 848 25.04 16.5 61.7 60 8.9 48.1
08:05 1019 30.09 848 25.04 16.7 62.1 57 8.3 46.9
08:10 1019 30.09 848 25.04 16.7 62.1 56 8 46.4
08:15 1019 30.09 848 25.04 17.1 62.8 58 8.8 47.8
08:20 1019 30.09 848 25.04 17.1 62.8 55 8.1 46.6
08:25 1019 30.09 848 25.04 17.5 63.5 52 7.8 46
08:30 1019 30.09 848 25.04 18.3 65 51 8.1 46.5
08:35 1019 30.09 848 25.04 18.8 65.9 49 8.1 46.6
08:40 1019 30.09 848 25.04 19.2 66.5 48 8.2 46.7
08:45 1019 30.09 848 25.04 19 66.2 48 7.8 46
08:50 1019 30.09 848 25.04 17.9 64.3 51 7.7 45.8
08:55 1019 30.09 848 25.04 18.5 65.3 47 7.1 44.8
09:00 1019 30.09 848 25.04 18.8 65.9 48 7.7 45.9
09:05 1019 30.09 848 25.04 19.2 66.6 47 7.7 45.8
09:10 1019 30.09 848 25.04 19.1 66.4 47 7.8 46
09:15 1019 30.09 848 25.04 19.5 67.1 46 7.7 45.9
09:20 1019 30.09 848 25.04 19.8 67.6 45 7.6 45.6
09:25 1019 30.09 848 25.04 20 68 45 7.7 45.9
09:30 1019 30.09 848 25.04 20 67.9 46 8.2 46.7
09:35 1019 30.09 848 25.04 19.8 67.6 47 8.2 46.7
09:40 1019 30.09 848 25.04 20 68 48 8.7 47.7
09:45 1019 30.09 848 25.04 20.2 68.4 46 8.5 47.3
09:50 1019 30.09 848 25.04 20.4 68.7 45 8.2 46.7
09:55 1019 30.09 848 25.04 20.8 69.5 45 8.7 47.6
10:00 1019 30.09 848 25.04 20.9 69.7 43 8.2 46.7
10:05 1019 30.09 848 25.04 21.1 70 43 8.3 47
10:10 1019 30.09 848 25.04 21.1 70 44 8.4 47.2
10:15 1019 30.09 848 25.04 21.3 70.3 43 8.2 46.8
10:20 1019 30.09 848 25.04 21.4 70.5 44 8.9 48.1
10:25 1018 30.06 848 25.04 21.4 70.5 41 7.9 46.2
10:30 1018 30.06 848 25.04 21.8 71.2 36 6.2 43.2
10:35 1018 30.06 848 25.04 21.8 71.3 28 2.7 36.9
10:40 1018 30.06 848 25.04 22 71.6 28 2.9 37.2
10:45 1018 30.06 848 25.04 21.2 70.2 31 3.5 38.3
10:50 1018 30.06 848 25.04 21.3 70.4 29 2.9 37.2
10:55 1018 30.06 847 25.01 21.3 70.3 32 3.9 39.1
11:00 1018 30.06 847 25.01 20.9 69.7 30 3.1 37.6
11:05 1018 30.06 847 25.01 21 69.7 29 2.6 36.7
11:10 1018 30.06 847 25.01 21.1 70.1 29 2.5 36.5
11:15 1018 30.06 847 25.01 21.2 70.2 27 1.9 35.4
11:20 1018 30.06 847 25.01 21.1 69.9 27 1.5 34.6
11:25 1018 30.06 847 25.01 21 69.8 29 2.5 36.5
11:30 1018 30.06 847 25.01 21.5 70.7 28 2.6 36.7
11:35 1018 30.06 847 25.01 22.1 71.9 29 3.4 38.2
11:40 1018 30.06 847 25.01 22.5 72.5 25 2 35.5
11:45 1018 30.06 847 25.01 22.6 72.6 26 2.1 35.8
11:50 1018 30.06 847 25.01 22.7 72.8 26 2.6 36.7
11:55 1018 30.06 847 25.01 22.5 72.4 27 2.6 36.7
12:00 1018 30.06 847 25.01 22.1 71.7 27 2.5 36.5
12:05 1018 30.06 847 25.01 22 71.6 27 2.6 36.7
12:10 1018 30.06 847 25.01 21.6 70.9 29 3.2 37.7
12:15 1018 30.06 847 25.01 21.5 70.7 26 1.4 34.5
12:20 1018 30.06 847 25.01 21.6 70.8 26 1.3 34.3
12:25 1018 30.06 847 25.01 21.8 71.2 25 1.1 33.9
12:30 1018 30.06 847 25.01 21.8 71.3 25 1.3 34.4
12:35 1018 30.06 847 25.01 21.9 71.4 31 4.3 39.7
12:40 1018 30.06 847 25.01 21.6 70.9 31 3.9 39.1
12:45 1018 30.06 847 25.01 21.6 70.8 31 3.8 38.8
12:50 1018 30.06 847 25.01 21.8 71.2 32 4.5 40.1
12:55 1018 30.06 847 25.01 22.3 72.1 28 2.9 37.2
13:00 1018 30.06 847 25.01 22.8 73 28 3.5 38.3
13:05 1018 30.06 847 25.01 22.9 73.1 26 2.7 36.8
13:10 1018 30.06 847 25.01 22.6 72.6 28 3.1 37.6
13:15 1018 30.06 847 25.01 22.2 71.9 30 3.9 39.1
13:20 1018 30.06 847 25.01 21.8 71.3 31 4.2 39.6
13:25 1018 30.06 847 25.01 21.8 71.3 32 4.6 40.4
13:30 1018 30.06 847 25.01 21.9 71.3 32 4.4 40
13:35 1018 30.06 847 25.01 22.1 71.8 31 4.3 39.8
13:40 1018 30.06 847 25.01 22.2 72 30 4.2 39.5
13:45 1018 30.06 847 25.01 22.2 71.9 30 4 39.1
13:50 1018 30.06 847 25.01 22.5 72.5 29 3.6 38.4
13:55 1018 30.06 847 25.01 23.2 73.7 28 3.8 38.9
14:00 1017 30.03 847 25.01 22.9 73.1 28 3.8 38.8
14:05 1017 30.03 847 25.01 23 73.3 29 4 39.1
14:10 1017 30.03 847 25.01 23.3 73.9 27 3.5 38.2
14:15 1017 30.03 847 25.01 23.1 73.5 27 3.5 38.3
14:20 1017 30.03 847 25.01 23.1 73.6 28 3.6 38.5
14:25 1017 30.03 846 24.98 23 73.4 29 4.1 39.4
14:30 1017 30.03 846 24.98 22.6 72.6 29 3.9 39.1
14:35 1017 30.03 846 24.98 22.3 72.2 30 4.3 39.7
14:40 1017 30.03 846 24.98 22.2 72 30 3.9 39.1
14:45 1017 30.03 846 24.98 21.9 71.5 31 4.4 39.9
14:50 1017 30.03 846 24.98 21.8 71.3 32 4.6 40.2
14:55 1017 30.03 846 24.98 21.9 71.3 32 4.5 40.2
15:00 1017 30.03 846 24.98 22.1 71.7 31 4.2 39.5
15:05 1017 30.03 846 24.98 22.4 72.4 29 3.8 38.9
15:10 1017 30.03 846 24.98 22.6 72.6 31 4.6 40.2
15:15 1017 30.03 846 24.98 22.6 72.6 30 4.3 39.7
15:20 1017 30.03 846 24.98 22.5 72.5 31 4.5 40.2
15:25 1017 30.03 846 24.98 22.5 72.5 30 4.2 39.6
15:30 1017 30.03 846 24.98 22.4 72.3 31 4.4 40
15:35 1017 30.03 846 24.98 22.2 72 29 3.7 38.7
15:40 1017 30.03 846 24.98 22.2 72 31 4.4 40
15:45 1017 30.03 846 24.98 22.3 72.1 31 4.7 40.4
15:50 1017 30.03 846 24.98 22.5 72.4 34 5.8 42.5
15:55 1017 30.03 846 24.98 22.5 72.5 32 5.4 41.7
16:00 1017 30.03 846 24.98 22.4 72.3 33 5.5 41.9
16:05 1017 30.03 846 24.98 22.2 71.9 34 5.6 42.1
16:10 1017 30.03 846 24.98 22 71.6 33 5.2 41.4
16:15 1017 30.03 846 24.98 22 71.7 35 6.1 42.9
16:20 1017 30.03 846 24.98 22.2 71.9 36 6.7 44.1
16:25 1017 30.03 846 24.98 22.3 72.1 36 6.7 44
16:30 1017 30.03 846 24.98 22.2 71.9 35 6.1 43
16:35 1017 30.03 846 24.98 22.4 72.4 34 5.9 42.7
16:40 1016 30 846 24.98 22.3 72.1 34 5.9 42.6
16:45 1016 30 846 24.98 22.1 71.9 35 6.2 43.1
16:50 1016 30 846 24.98 22.1 71.9 36 6.6 43.9
16:55 1016 30 846 24.98 22 71.6 37 6.6 43.9
17:00 1016 30 846 24.98 21.9 71.5 36 6.2 43.2
17:05 1016 30 846 24.98 21.9 71.4 36 6.4 43.5
17:10 1016 30 846 24.98 21.8 71.3 37 6.7 44
17:15 1016 30 846 24.98 21.8 71.3 37 6.8 44.3
17:20 1016 30 846 24.98 21.7 71 39 7.1 44.9
17:25 1016 30 845 24.95 21.5 70.7 39 7.1 44.8
17:30 1016 30 845 24.95 21.5 70.7 38 6.7 44
17:35 1016 30 845 24.95 21.4 70.6 38 6.9 44.3
17:40 1016 30 845 24.95 21.3 70.3 39 7 44.7
17:45 1016 30 845 24.95 21.2 70.2 39 6.8 44.2
17:50 1016 30 845 24.95 21.1 70 39 6.8 44.3
17:55 1016 30 845 24.95 20.9 69.7 39 6.5 43.8
18:00 1016 30 845 24.95 20.9 69.6 38 6.2 43.1
18:05 1016 30 845 24.95 20.8 69.4 38 6.1 43
18:10 1016 30 845 24.95 20.9 69.5 37 5.9 42.7
18:15 1016 30 845 24.95 20.9 69.5 38 6.3 43.4
18:20 1016 30 845 24.95 20.9 69.5 38 6.3 43.3
18:25 1016 30 845 24.95 20.8 69.4 38 6.3 43.3
18:30 1016 30 845 24.95 20.7 69.2 40 6.8 44.2
18:35 1016 30 845 24.95 20.6 69 41 6.9 44.4
18:40 1016 30 845 24.95 20.6 69 39 6.1 43
18:45 1016 30 845 24.95 20.7 69.2 39 6.3 43.3
18:50 1016 30 845 24.95 20.7 69.2 39 6.3 43.3
18:55 1016 30 845 24.95 20.6 69.1 38 6.1 42.9
19:00 1016 30 845 24.95 20.8 69.4 36 5.4 41.7
19:05 1016 30 845 24.95 20.9 69.6 37 5.8 42.4
19:10 1016 30 845 24.95 20.8 69.4 37 5.8 42.4
19:15 1016 30 845 24.95 20.8 69.4 38 6 42.7
19:20 1016 30 845 24.95 20.8 69.4 40 6.9 44.4
19:25 1016 30 845 24.95 20.5 69 41 7.1 44.7
19:30 1016 30 845 24.95 20.4 68.8 38 5.9 42.6
19:35 1016 30 846 24.98 20.5 68.8 39 6.4 43.4
19:40 1016 30 846 24.98 20.3 68.6 38 5.7 42.3
19:45 1016 30 846 24.98 20.4 68.7 38 5.8 42.4
19:50 1017 30.03 846 24.98 20.5 68.8 34 4.4 39.9
19:55 1017 30.03 846 24.98 20.5 68.8 33 3.6 38.5
20:00 1017 30.03 846 24.98 20.4 68.7 36 4.8 40.7
20:05 1017 30.03 846 24.98 20.1 68.1 37 4.9 40.9
20:10 1017 30.03 846 24.98 19.8 67.6 36 4.5 40
20:15 1017 30.03 846 24.98 19.7 67.5 36 4.5 40
20:20 1017 30.03 846 24.98 19.7 67.4 35 4 39.2
20:25 1017 30.03 846 24.98 19.5 67.2 34 3.3 37.9
20:30 1017 30.03 846 24.98 19.5 67.1 34 3.2 37.8
20:35 1017 30.03 847 25.01 19.4 66.9 33 3 37.4
20:40 1017 30.03 847 25.01 19.2 66.5 35 3.5 38.2
20:45 1018 30.06 847 25.01 19 66.1 33 2.5 36.5
20:50 1018 30.06 847 25.01 18.8 65.9 34 2.8 37.1
20:55 1018 30.06 847 25.01 18.7 65.7 31 1.4 34.6
21:00 1018 30.06 847 25.01 18.6 65.4 28 -0.1 31.9
21:05 1018 30.06 847 25.01 18.5 65.3 29 0.2 32.4
21:10 1018 30.06 847 25.01 18.4 65.1 28 -0.3 31.4
21:15 1018 30.06 847 25.01 18.2 64.8 28 -0.3 31.5
21:20 1018 30.06 847 25.01 18 64.3 29 -0.2 31.7
21:25 1018 30.06 847 25.01 17.7 63.9 30 -0.2 31.7
21:30 1018 30.06 847 25.01 17.4 63.2 31 0.3 32.5
21:35 1018 30.06 847 25.01 16.9 62.3 32 0.2 32.4
21:40 1018 30.06 847 25.01 16.5 61.6 32 -0.1 31.9
21:45 1018 30.06 847 25.01 16.2 61.2 32 -0.2 31.6
21:50 1018 30.06 847 25.01 16.1 60.9 34 0.2 32.4
21:55 1018 30.06 847 25.01 15.8 60.4 35 0.3 32.6
22:00 1018 30.06 847 25.01 15.5 60 36 0.5 32.8
22:05 1018 30.06 847 25.01 15.3 59.6 37 0.7 33.3
22:10 1018 30.06 847 25.01 15.2 59.3 38 0.9 33.6
22:15 1018 30.06 848 25.04 14.9 58.8 38 0.9 33.6
22:20 1018 30.06 848 25.04 14.9 58.8 38 0.7 33.2
22:25 1018 30.06 848 25.04 14.7 58.5 42 2 35.5
22:30 1018 30.06 848 25.04 14.1 57.4 44 2.2 36
22:35 1018 30.06 848 25.04 13.8 56.9 49 3.3 37.9
22:40 1019 30.09 848 25.04 13.4 56.1 52 3.7 38.6
22:45 1019 30.09 848 25.04 13.6 56.5 45 1.9 35.5
22:50 1019 30.09 848 25.04 14.2 57.6 43 2 35.6
22:55 1019 30.09 848 25.04 14.5 58.1 43 2.2 36
23:00 1019 30.09 848 25.04 14.6 58.2 45 2.8 37.1
23:05 1019 30.09 848 25.04 14.4 57.8 46 3.1 37.5
23:10 1019 30.09 848 25.04 14.3 57.7 46 2.9 37.2
23:15 1019 30.09 848 25.04 14.3 57.7 49 3.7 38.6
23:20 1019 30.09 848 25.04 14.1 57.4 49 3.7 38.6
23:25 1019 30.09 848 25.04 13.9 57 51 3.9 39
23:30 1019 30.09 848 25.04 13.7 56.7 51 4 39.1
23:35 1019 30.09 848 25.04 13.5 56.3 52 4 39.2
23:40 1019 30.09 848 25.04 13.4 56.1 52 3.8 38.9
23:45 1019 30.09 848 25.04 13.3 55.9 51 3.5 38.3
23:50 1019 30.09 848 25.04 13.1 55.7 54 4 39.2
23:55 1019 30.09 848 25.04 12.7 54.9 57 4.4 39.8
24:00 1019 30.09 848 25.04 12.3 54.1 57 4.1 39.4